createdAt,value
2017-06-23T00:01:31.667Z,20.30
2017-06-23T00:03:57.948Z,20.30
2017-06-23T00:06:24.186Z,20.70
2017-06-23T00:08:50.610Z,20.30
2017-06-23T00:11:16.847Z,20.30
2017-06-23T00:13:43.091Z,20.10
2017-06-23T00:17:36.277Z,20.20
2017-06-23T00:20:02.547Z,20.20
2017-06-23T00:22:28.804Z,20.30
2017-06-23T00:24:55.207Z,20.20
2017-06-23T00:27:21.450Z,20.70
2017-06-23T00:29:47.728Z,20.30
2017-06-23T00:32:14.992Z,20.30
2017-06-23T00:34:41.251Z,20.30
2017-06-23T00:37:07.509Z,20.30
2017-06-23T00:39:33.927Z,20.50
2017-06-23T00:42:00.176Z,20.30
2017-06-23T00:44:26.423Z,20.40
2017-06-23T00:46:52.828Z,20.20
2017-06-23T00:49:19.075Z,20.30
2017-06-23T00:51:45.327Z,20.30
2017-06-23T00:54:11.692Z,20.20
2017-06-23T00:56:37.936Z,20.40
2017-06-23T00:59:04.178Z,20.20
2017-06-23T01:01:30.603Z,20.20
2017-06-23T01:03:56.858Z,20.20
2017-06-23T01:06:23.134Z,20.20
2017-06-23T01:08:49.535Z,20.40
2017-06-23T01:11:15.804Z,20.20
2017-06-23T01:13:42.078Z,20.50
2017-06-23T01:17:35.952Z,20.30
2017-06-23T01:20:02.224Z,20.30
2017-06-23T01:22:28.479Z,20.30
2017-06-23T01:24:54.888Z,20.50
2017-06-23T01:27:21.122Z,20.30
2017-06-23T01:29:47.383Z,20.30
2017-06-23T01:32:13.772Z,20.30
2017-06-23T01:34:40.770Z,20.20
2017-06-23T01:37:07.020Z,20.40
2017-06-23T01:39:33.442Z,20.50
2017-06-23T01:41:59.773Z,20.20
2017-06-23T01:44:26.061Z,20.70
2017-06-23T01:46:52.487Z,20.80
2017-06-23T01:49:18.755Z,20.10
2017-06-23T01:51:45.028Z,20.30
2017-06-23T01:54:11.444Z,20.30
2017-06-23T01:56:37.691Z,20.30
2017-06-23T01:59:03.931Z,20.30
2017-06-23T02:01:30.332Z,20.40
2017-06-23T02:03:56.593Z,20.30
2017-06-23T02:06:22.847Z,20.40
2017-06-23T02:08:49.274Z,20.10
2017-06-23T02:11:15.507Z,20.40
2017-06-23T02:13:41.771Z,20.50
2017-06-23T02:17:36.561Z,20.30
2017-06-23T02:20:02.803Z,20.20
2017-06-23T02:22:29.042Z,20.80
2017-06-23T02:24:55.433Z,20.30
2017-06-23T02:27:21.692Z,20.00
2017-06-23T02:29:47.931Z,20.20
2017-06-23T02:32:14.526Z,20.20
2017-06-23T02:34:40.778Z,20.10
2017-06-23T02:37:07.520Z,20.20
2017-06-23T02:39:34.118Z,20.40
2017-06-23T02:42:00.372Z,20.70
2017-06-23T02:44:26.639Z,20.30
2017-06-23T02:46:53.050Z,20.30
2017-06-23T02:49:19.300Z,20.30
2017-06-23T02:51:45.548Z,20.40
2017-06-23T02:54:11.932Z,20.20
2017-06-23T02:56:38.182Z,20.20
2017-06-23T02:59:04.446Z,20.70
2017-06-23T03:01:30.811Z,20.20
2017-06-23T03:03:57.090Z,20.30
2017-06-23T03:06:23.337Z,20.30
2017-06-23T03:08:49.831Z,20.00
2017-06-23T03:11:16.097Z,20.20
2017-06-23T03:13:42.335Z,20.20
2017-06-23T03:17:36.514Z,20.30
2017-06-23T03:20:02.783Z,20.10
2017-06-23T03:22:29.024Z,20.00
2017-06-23T03:24:55.424Z,20.20
2017-06-23T03:27:21.654Z,20.10
2017-06-23T03:29:47.889Z,19.60
2017-06-23T03:32:14.259Z,19.80
2017-06-23T03:34:40.515Z,19.70
2017-06-23T03:37:06.782Z,19.50
2017-06-23T03:39:34.621Z,19.60
2017-06-23T03:42:00.863Z,19.70
2017-06-23T03:44:27.126Z,19.40
2017-06-23T03:46:53.540Z,19.50
2017-06-23T03:49:19.807Z,19.70
2017-06-23T03:51:46.060Z,19.70
2017-06-23T03:54:12.458Z,19.50
2017-06-23T03:56:38.712Z,19.40
2017-06-23T03:59:04.959Z,19.50
2017-06-23T04:01:31.387Z,19.60
2017-06-23T04:03:57.620Z,19.40
2017-06-23T04:06:23.872Z,19.70
2017-06-23T04:08:50.336Z,20.00
2017-06-23T04:11:16.584Z,19.60
2017-06-23T04:13:42.882Z,19.60
2017-06-23T04:17:36.188Z,19.40
2017-06-23T04:20:02.443Z,19.50
2017-06-23T04:22:28.704Z,19.90
2017-06-23T04:24:55.092Z,19.70
2017-06-23T04:27:21.348Z,19.70
2017-06-23T04:29:47.599Z,20.10
2017-06-23T04:32:13.966Z,20.10
2017-06-23T04:34:40.220Z,19.90
2017-06-23T04:37:06.489Z,19.90
2017-06-23T04:39:32.950Z,20.20
2017-06-23T04:42:00.315Z,20.10
2017-06-23T04:44:26.583Z,20.10
2017-06-23T04:46:52.975Z,20.30
2017-06-23T04:49:19.227Z,20.20
2017-06-23T04:51:45.472Z,20.30
2017-06-23T04:54:11.836Z,20.30
2017-06-23T04:56:38.115Z,20.30
2017-06-23T04:59:04.354Z,20.20
2017-06-23T05:01:30.761Z,20.30
2017-06-23T05:03:58.019Z,20.00
2017-06-23T05:06:24.472Z,20.20
2017-06-23T05:08:50.938Z,20.30
2017-06-23T05:11:17.212Z,20.30
2017-06-23T05:13:43.533Z,20.20
2017-06-23T05:17:35.599Z,20.20
2017-06-23T05:20:01.884Z,20.80
2017-06-23T05:22:28.142Z,21.10
2017-06-23T05:24:54.535Z,20.90
2017-06-23T05:27:20.802Z,21.10
2017-06-23T05:29:47.112Z,20.90
2017-06-23T05:32:13.484Z,21.10
2017-06-23T05:34:39.773Z,21.10
2017-06-23T05:37:06.014Z,20.90
2017-06-23T05:39:32.414Z,20.80
2017-06-23T05:41:59.727Z,20.90
2017-06-23T05:44:25.993Z,21.30
2017-06-23T05:46:59.688Z,21.10
2017-06-23T05:49:25.934Z,21.40
2017-06-23T05:51:52.172Z,21.40
2017-06-23T05:54:18.583Z,21.00
2017-06-23T05:56:44.814Z,21.60
2017-06-23T05:59:11.107Z,21.00
2017-06-23T06:01:37.486Z,21.20
2017-06-23T06:04:03.744Z,21.60
2017-06-23T06:06:30.001Z,21.50
2017-06-23T06:08:56.375Z,21.60
2017-06-23T06:11:22.614Z,21.50
2017-06-23T06:13:48.871Z,21.60
2017-06-23T06:17:36.370Z,21.60
2017-06-23T06:20:02.634Z,21.80
2017-06-23T06:22:28.881Z,21.70
2017-06-23T06:24:55.283Z,21.80
2017-06-23T06:27:21.620Z,21.80
2017-06-23T06:29:47.868Z,22.10
2017-06-23T06:32:14.261Z,21.70
2017-06-23T06:34:40.511Z,21.60
2017-06-23T06:37:06.750Z,21.50
2017-06-23T06:39:33.138Z,21.10
2017-06-23T06:42:01.194Z,21.70
2017-06-23T06:44:27.480Z,21.40
2017-06-23T06:46:53.947Z,21.40
2017-06-23T06:49:20.256Z,21.50
2017-06-23T06:51:46.488Z,21.50
2017-06-23T06:54:12.862Z,21.80
2017-06-23T06:56:39.121Z,21.70
2017-06-23T06:59:05.381Z,21.60
2017-06-23T07:01:31.775Z,21.50
2017-06-23T07:03:58.031Z,21.60
2017-06-23T07:06:24.294Z,21.70
2017-06-23T07:08:50.688Z,21.70
2017-06-23T07:11:16.951Z,21.60
2017-06-23T07:13:43.219Z,21.30
2017-06-23T07:17:35.331Z,21.50
2017-06-23T07:20:01.575Z,21.10
2017-06-23T07:22:27.840Z,21.00
2017-06-23T07:24:54.366Z,21.40
2017-06-23T07:27:20.611Z,21.20
2017-06-23T07:29:46.882Z,21.50
2017-06-23T07:32:13.260Z,21.40
2017-06-23T07:34:39.498Z,21.50
2017-06-23T07:37:05.743Z,21.20
2017-06-23T07:39:32.122Z,21.70
2017-06-23T07:41:58.427Z,21.40
2017-06-23T07:44:26.063Z,21.50
2017-06-23T07:46:52.488Z,21.90
2017-06-23T07:49:18.778Z,22.40
2017-06-23T07:51:45.012Z,23.10
2017-06-23T07:54:11.408Z,23.70
2017-06-23T07:56:37.646Z,23.60
2017-06-23T07:59:03.900Z,23.50
2017-06-23T08:01:30.304Z,23.80
2017-06-23T08:03:56.553Z,23.70
2017-06-23T08:06:23.586Z,23.50
2017-06-23T08:08:50.721Z,23.90
2017-06-23T08:11:16.967Z,23.80
2017-06-23T08:13:43.959Z,24.20
2017-06-23T08:17:35.932Z,24.30
2017-06-23T08:20:02.202Z,24.40
2017-06-23T08:22:28.474Z,23.70
2017-06-23T08:24:54.883Z,24.70
2017-06-23T08:27:21.150Z,25.00
2017-06-23T08:29:47.384Z,24.50
2017-06-23T08:32:13.771Z,24.80
2017-06-23T08:34:40.031Z,24.50
2017-06-23T08:37:06.312Z,24.70
2017-06-23T08:39:32.715Z,24.40
2017-06-23T08:41:58.971Z,24.90
2017-06-23T08:44:27.959Z,24.80
2017-06-23T08:46:54.319Z,24.40
2017-06-23T08:49:20.583Z,24.90
2017-06-23T08:51:46.847Z,24.50
2017-06-23T08:54:13.324Z,24.90
2017-06-23T08:56:39.582Z,24.80
2017-06-23T08:59:05.855Z,24.90
2017-06-23T09:01:32.237Z,24.90
2017-06-23T09:03:59.255Z,25.60
2017-06-23T09:06:25.533Z,25.20
2017-06-23T09:08:51.929Z,25.20
2017-06-23T09:11:18.233Z,25.50
2017-06-23T09:13:44.538Z,24.90
2017-06-23T09:17:35.603Z,24.70
2017-06-23T09:20:01.872Z,24.60
2017-06-23T09:22:28.141Z,24.30
2017-06-23T09:24:54.552Z,24.60
2017-06-23T09:27:20.807Z,24.70
2017-06-23T09:29:47.059Z,24.60
2017-06-23T09:32:13.483Z,24.30
2017-06-23T09:34:39.715Z,24.10
2017-06-23T09:37:05.987Z,23.90
2017-06-23T09:39:32.397Z,23.80
2017-06-23T09:41:58.638Z,23.70
2017-06-23T09:44:24.906Z,24.10
2017-06-23T09:46:51.575Z,23.80
2017-06-23T09:49:17.826Z,23.90
2017-06-23T09:51:44.108Z,23.70
2017-06-23T09:54:10.568Z,23.90
2017-06-23T09:56:36.814Z,24.40
2017-06-23T09:59:03.103Z,24.60
2017-06-23T10:01:29.554Z,24.60
2017-06-23T10:03:56.586Z,25.40
2017-06-23T10:06:22.829Z,25.00
2017-06-23T10:08:49.218Z,25.80
2017-06-23T10:11:15.471Z,25.80
2017-06-23T10:13:41.717Z,25.90
2017-06-23T10:17:35.257Z,24.90
2017-06-23T10:20:01.593Z,24.80
2017-06-23T10:22:27.854Z,24.90
2017-06-23T10:24:54.227Z,25.00
2017-06-23T10:27:20.527Z,25.10
2017-06-23T10:29:46.759Z,24.80
2017-06-23T10:32:13.176Z,24.80
2017-06-23T10:34:39.419Z,25.30
2017-06-23T10:37:05.666Z,25.70
2017-06-23T10:39:32.036Z,25.50
2017-06-23T10:41:58.339Z,26.40
2017-06-23T10:44:24.584Z,26.30
2017-06-23T10:46:54.415Z,26.70
2017-06-23T10:49:20.834Z,26.60
2017-06-23T10:51:47.128Z,26.50
2017-06-23T10:54:14.451Z,26.30
2017-06-23T10:56:40.682Z,25.90
2017-06-23T10:59:06.918Z,26.80
2017-06-23T11:01:34.841Z,26.80
2017-06-23T11:04:02.605Z,26.90
2017-06-23T11:06:30.207Z,26.80
2017-06-23T11:08:56.635Z,26.20
2017-06-23T11:11:22.864Z,26.30
2017-06-23T11:13:49.099Z,26.80
2017-06-23T11:17:36.430Z,26.80
2017-06-23T11:20:02.706Z,27.00
2017-06-23T11:22:28.961Z,27.50
2017-06-23T11:24:55.369Z,27.40
2017-06-23T11:27:21.592Z,27.00
2017-06-23T11:29:47.835Z,27.00
2017-06-23T11:32:14.232Z,27.30
2017-06-23T11:34:40.472Z,27.30
2017-06-23T11:37:06.751Z,27.30
2017-06-23T11:39:33.112Z,27.10
2017-06-23T11:41:59.366Z,26.60
2017-06-23T11:44:25.614Z,26.90
2017-06-23T11:46:52.356Z,27.00
2017-06-23T11:49:18.681Z,27.70
2017-06-23T11:51:44.933Z,27.10
2017-06-23T11:54:11.317Z,27.20
2017-06-23T11:56:37.557Z,27.10
2017-06-23T11:59:03.820Z,27.00
2017-06-23T12:01:30.218Z,26.80
2017-06-23T12:03:56.474Z,26.90
2017-06-23T12:06:22.725Z,26.80
2017-06-23T12:08:49.123Z,27.10
2017-06-23T12:11:15.362Z,27.00
2017-06-23T12:13:42.359Z,27.60
2017-06-23T12:17:36.190Z,27.50
2017-06-23T12:20:02.456Z,26.60
2017-06-23T12:22:28.718Z,27.30
2017-06-23T12:24:55.112Z,27.50
2017-06-23T12:27:21.356Z,27.90
2017-06-23T12:29:47.600Z,28.20
2017-06-23T12:32:13.988Z,27.80
2017-06-23T12:34:40.264Z,27.30
2017-06-23T12:37:06.524Z,26.70
2017-06-23T12:39:32.931Z,26.80
2017-06-23T12:41:59.162Z,26.90
2017-06-23T12:44:25.485Z,27.30
2017-06-23T12:46:53.555Z,27.30
2017-06-23T12:49:19.811Z,26.80
2017-06-23T12:51:46.061Z,27.30
2017-06-23T12:54:12.719Z,26.70
2017-06-23T12:56:38.960Z,26.80
2017-06-23T12:59:05.205Z,26.70
2017-06-23T13:01:31.607Z,26.70
2017-06-23T13:03:57.859Z,26.70
2017-06-23T13:06:24.105Z,27.30
2017-06-23T13:08:50.504Z,26.90
2017-06-23T13:11:16.764Z,27.00
2017-06-23T13:13:43.001Z,27.50
2017-06-23T13:17:36.175Z,27.20
2017-06-23T13:20:04.957Z,26.90
2017-06-23T13:22:32.511Z,27.20
2017-06-23T13:24:58.878Z,27.20
2017-06-23T13:27:25.799Z,27.70
2017-06-23T13:29:53.231Z,27.20
2017-06-23T13:32:20.256Z,27.30
2017-06-23T13:34:47.880Z,26.90
2017-06-23T13:37:15.015Z,27.00
2017-06-23T13:39:43.575Z,27.30
2017-06-23T13:42:10.803Z,27.20
2017-06-23T13:44:37.066Z,26.50
2017-06-23T13:47:06.229Z,26.80
2017-06-23T13:49:33.002Z,27.00
2017-06-23T13:51:59.252Z,27.20
2017-06-23T13:54:25.650Z,27.00
2017-06-23T13:56:51.916Z,27.20
2017-06-23T13:59:18.162Z,26.70
2017-06-23T14:01:44.639Z,26.40
2017-06-23T14:04:11.040Z,26.50
2017-06-23T14:06:37.296Z,26.70
2017-06-23T14:09:03.787Z,27.10
2017-06-23T14:11:30.031Z,27.20
2017-06-23T14:13:56.264Z,26.90
2017-06-23T14:17:37.664Z,27.40
2017-06-23T14:20:03.935Z,27.20
2017-06-23T14:22:30.197Z,27.40
2017-06-23T14:24:56.722Z,27.10
2017-06-23T14:27:23.008Z,27.30
2017-06-23T14:29:49.288Z,27.20
2017-06-23T14:32:15.683Z,26.70
2017-06-23T14:34:41.955Z,27.10
2017-06-23T14:37:08.213Z,27.20
2017-06-23T14:39:34.642Z,27.50
2017-06-23T14:42:02.213Z,27.30
2017-06-23T14:44:28.610Z,27.20
2017-06-23T14:46:55.064Z,27.30
2017-06-23T14:49:24.759Z,27.10
2017-06-23T14:51:51.055Z,27.10
2017-06-23T14:54:17.460Z,27.10
2017-06-23T14:56:43.756Z,26.90
2017-06-23T15:01:52.500Z,26.60
2017-06-23T15:04:18.751Z,26.50
2017-06-23T15:06:45.021Z,25.80
2017-06-23T15:09:11.460Z,26.10
2017-06-23T15:11:37.775Z,25.80
2017-06-23T15:14:04.061Z,26.10
2017-06-23T15:17:35.645Z,26.20
2017-06-23T15:20:01.941Z,24.70
2017-06-23T15:22:28.192Z,25.50
2017-06-23T15:24:54.587Z,25.20
2017-06-23T15:27:20.852Z,25.50
2017-06-23T15:29:47.135Z,26.20
2017-06-23T15:32:13.532Z,26.20
2017-06-23T15:34:39.822Z,25.80
2017-06-23T15:37:06.115Z,25.60
2017-06-23T15:39:32.539Z,25.30
2017-06-23T15:41:58.836Z,24.70
2017-06-23T15:44:25.088Z,25.00
2017-06-23T15:46:51.490Z,24.60
2017-06-23T15:49:17.748Z,24.60
2017-06-23T15:51:44.954Z,24.30
2017-06-23T15:54:11.359Z,24.70
2017-06-23T15:56:37.606Z,24.10
2017-06-23T15:59:03.871Z,24.70
2017-06-23T16:01:30.500Z,25.00
2017-06-23T16:03:56.755Z,24.20
2017-06-23T16:06:23.048Z,24.80
2017-06-23T16:08:49.463Z,24.50
2017-06-23T16:11:15.727Z,25.00
2017-06-23T16:13:41.983Z,24.60
2017-06-23T16:17:35.235Z,24.00
2017-06-23T16:20:01.476Z,24.30
2017-06-23T16:22:27.716Z,24.60
2017-06-23T16:24:54.459Z,24.60
2017-06-23T16:27:20.711Z,24.60
2017-06-23T16:29:47.039Z,24.60
2017-06-23T16:32:13.480Z,24.30
2017-06-23T16:34:39.767Z,24.20
2017-06-23T16:37:06.018Z,24.80
2017-06-23T16:39:32.482Z,24.20
2017-06-23T16:42:00.542Z,24.60
2017-06-23T16:44:26.805Z,24.40
2017-06-23T16:46:53.175Z,24.40
2017-06-23T16:49:19.458Z,24.50
2017-06-23T16:51:47.226Z,24.40
2017-06-23T16:54:13.619Z,24.50
2017-06-23T16:56:39.884Z,24.00
2017-06-23T16:59:06.114Z,23.90
2017-06-23T17:01:32.547Z,23.70
2017-06-23T17:03:58.806Z,23.60
2017-06-23T17:06:25.087Z,23.50
2017-06-23T17:08:51.527Z,23.20
2017-06-23T17:11:17.787Z,23.70
2017-06-23T17:13:44.078Z,23.30
2017-06-23T17:17:36.604Z,23.70
2017-06-23T17:20:02.865Z,23.80
2017-06-23T17:22:29.155Z,23.80
2017-06-23T17:24:55.843Z,23.80
2017-06-23T17:27:22.100Z,24.00
2017-06-23T17:29:48.346Z,24.30
2017-06-23T17:32:14.743Z,23.80
2017-06-23T17:34:41.039Z,23.70
2017-06-23T17:37:07.419Z,23.70
2017-06-23T17:39:34.067Z,23.70
2017-06-23T17:42:00.526Z,23.70
2017-06-23T17:44:26.860Z,23.90
2017-06-23T17:46:53.369Z,24.30
2017-06-23T17:49:19.658Z,23.90
2017-06-23T17:51:46.535Z,23.70
2017-06-23T17:54:19.723Z,23.80
2017-06-23T17:56:45.988Z,23.70
2017-06-23T17:59:12.248Z,23.00
2017-06-23T18:01:38.668Z,23.60
2017-06-23T18:04:04.906Z,23.60
2017-06-23T18:06:31.176Z,23.60
2017-06-23T18:08:57.552Z,23.10
2017-06-23T18:11:23.795Z,23.70
2017-06-23T18:13:50.087Z,23.50
2017-06-23T18:17:36.826Z,23.60
2017-06-23T18:20:03.070Z,23.60
2017-06-23T18:22:29.407Z,23.20
2017-06-23T18:24:55.807Z,23.00
2017-06-23T18:27:22.060Z,23.30
2017-06-23T18:29:48.347Z,22.90
2017-06-23T18:32:14.749Z,23.00
2017-06-23T18:34:40.997Z,22.40
2017-06-23T18:37:07.266Z,22.90
2017-06-23T18:39:33.690Z,22.40
2017-06-23T18:41:59.924Z,22.00
2017-06-23T18:44:26.162Z,22.90
2017-06-23T18:46:52.602Z,22.50
2017-06-23T18:49:18.903Z,22.30
2017-06-23T18:51:45.143Z,22.20
2017-06-23T18:54:12.477Z,22.20
2017-06-23T18:56:38.731Z,22.20
2017-06-23T18:59:04.989Z,22.30
2017-06-23T19:01:31.503Z,22.40
2017-06-23T19:03:57.759Z,22.20
2017-06-23T19:06:24.012Z,22.40
2017-06-23T19:08:50.406Z,22.20
2017-06-23T19:11:16.695Z,22.20
2017-06-23T19:13:42.967Z,21.80
2017-06-23T19:17:36.195Z,22.00
2017-06-23T19:20:03.230Z,21.50
2017-06-23T19:22:29.523Z,21.30
2017-06-23T19:24:55.959Z,21.60
2017-06-23T19:27:22.247Z,21.60
2017-06-23T19:29:48.506Z,21.50
2017-06-23T19:32:14.935Z,21.80
2017-06-23T19:34:41.179Z,21.60
2017-06-23T19:37:07.459Z,21.30
2017-06-23T19:39:33.874Z,21.70
2017-06-23T19:42:00.131Z,21.50
2017-06-23T19:44:26.383Z,21.40
2017-06-23T19:46:52.804Z,20.90
2017-06-23T19:49:19.068Z,21.50
2017-06-23T19:51:45.319Z,21.40
2017-06-23T19:54:11.742Z,21.50
2017-06-23T19:56:41.222Z,21.30
2017-06-23T19:59:07.478Z,21.50
2017-06-23T20:01:33.928Z,21.70
2017-06-23T20:04:00.212Z,20.90
2017-06-23T20:06:26.450Z,21.00
2017-06-23T20:08:52.851Z,21.50
2017-06-23T20:11:19.133Z,21.40
2017-06-23T20:13:45.407Z,21.00
2017-06-23T20:17:35.802Z,20.90
2017-06-23T20:20:02.295Z,21.10
2017-06-23T20:22:28.523Z,20.70
2017-06-23T20:24:54.927Z,21.20
2017-06-23T20:27:21.237Z,21.00
2017-06-23T20:29:47.501Z,21.10
2017-06-23T20:32:13.903Z,20.90
2017-06-23T20:34:40.138Z,21.10
2017-06-23T20:37:06.391Z,21.00
2017-06-23T20:39:32.794Z,20.70
2017-06-23T20:41:59.034Z,20.80
2017-06-23T20:44:25.300Z,20.80
2017-06-23T20:46:51.711Z,20.80
2017-06-23T20:49:17.955Z,20.80
2017-06-23T20:51:44.219Z,20.80
2017-06-23T20:54:10.615Z,20.40
2017-06-23T20:56:36.880Z,20.80
2017-06-23T20:59:04.062Z,20.30
2017-06-23T21:01:30.465Z,20.30
2017-06-23T21:03:56.741Z,20.40
2017-06-23T21:06:22.985Z,20.30
2017-06-23T21:08:49.427Z,20.30
2017-06-23T21:11:15.673Z,20.20
2017-06-23T21:13:41.937Z,20.30
2017-06-23T21:17:36.155Z,20.20
2017-06-23T21:20:02.440Z,20.10
2017-06-23T21:22:28.692Z,20.00
2017-06-23T21:24:55.107Z,20.20
2017-06-23T21:27:21.435Z,20.10
2017-06-23T21:29:47.734Z,20.20
2017-06-23T21:32:14.126Z,19.80
2017-06-23T21:34:40.424Z,19.70
2017-06-23T21:37:06.702Z,19.80
2017-06-23T21:39:33.930Z,19.60
2017-06-23T21:42:00.197Z,19.70
2017-06-23T21:44:26.476Z,19.60
2017-06-23T21:46:52.858Z,19.60
2017-06-23T21:49:19.139Z,19.30
2017-06-23T21:51:45.375Z,19.30
2017-06-23T21:54:11.796Z,19.30
2017-06-23T21:56:38.060Z,19.60
2017-06-23T21:59:05.756Z,19.50
2017-06-23T22:01:32.158Z,18.90
2017-06-23T22:03:59.192Z,18.70
2017-06-23T22:06:25.468Z,18.70
2017-06-23T22:08:51.953Z,19.00
2017-06-23T22:11:18.223Z,18.70
2017-06-23T22:13:44.502Z,18.90
2017-06-23T22:17:36.095Z,18.80
2017-06-23T22:20:02.383Z,18.70
2017-06-23T22:22:28.636Z,19.10
2017-06-23T22:24:55.020Z,18.90
2017-06-23T22:27:21.267Z,18.70
2017-06-23T22:29:47.533Z,18.70
2017-06-23T22:32:13.950Z,18.50
2017-06-23T22:34:40.198Z,18.80
2017-06-23T22:37:06.450Z,18.90
2017-06-23T22:39:32.945Z,18.60
2017-06-23T22:41:59.188Z,18.60
2017-06-23T22:44:25.426Z,18.70
2017-06-23T22:46:51.840Z,18.60
2017-06-23T22:49:18.099Z,18.70
2017-06-23T22:51:44.351Z,18.70
2017-06-23T22:54:10.829Z,18.90
2017-06-23T22:56:37.096Z,18.70
2017-06-23T22:59:03.342Z,18.50
2017-06-23T23:01:30.441Z,18.60
2017-06-23T23:03:56.723Z,18.70
2017-06-23T23:06:22.984Z,18.60
2017-06-23T23:08:49.350Z,18.80
2017-06-23T23:11:15.584Z,18.60
2017-06-23T23:13:41.866Z,18.90
2017-06-23T23:17:36.605Z,18.90
2017-06-23T23:20:02.861Z,18.60
2017-06-23T23:22:29.118Z,18.30
2017-06-23T23:24:55.523Z,18.30
2017-06-23T23:27:21.779Z,18.10
2017-06-23T23:29:48.021Z,18.30
2017-06-23T23:32:14.461Z,18.10
2017-06-23T23:34:40.712Z,18.10
2017-06-23T23:37:06.945Z,18.00
2017-06-23T23:39:33.359Z,18.10
2017-06-23T23:41:59.590Z,18.20
2017-06-23T23:44:25.855Z,18.40
2017-06-23T23:46:52.247Z,18.40
2017-06-23T23:49:18.495Z,18.30
2017-06-23T23:51:44.767Z,18.20
2017-06-23T23:54:11.183Z,18.10
2017-06-23T23:56:37.487Z,18.10
2017-06-23T23:59:03.740Z,18.30
